• Join FlightAware (Why Join?)
  • Login
  • US Flag 
10:58AM EDT


 

Airport Tracker/Info


-or-


 

Live Flight TrackerFlight Track Log ✈ SAS4417 ✈ 16-Sep-2013 ✈ ENTC / TOS - ENGM / OSL

Flight Track Log - Related Links

Times and Time Zones

All times are in EDT time to prevent confusion due to time zone crossing. See the SAS4417 flight status page for this flight to view local times or setup timezone preferences in your user account.

Time Position Orientation Groundspeed Altitude Reporting Facility
EDT Latitude Longitude Course Direction KTS MPH feet Rate Location/Type
08:25AM 68.2101 17.2567 203° Southwest  Level Estimated
08:26AM 68.1175 17.1599 201° Southwest  Level Estimated
08:27AM 68.0249 17.0639 201° Southwest  Level Estimated
08:28AM 67.9322 16.9687 201° Southwest  Level Estimated
08:29AM 67.8394 16.8742 201° Southwest  Level Estimated
08:30AM 67.7466 16.7805 201° Southwest  Level Estimated
08:31AM 67.6538 16.6875 201° Southwest  Level Estimated
08:32AM 67.5608 16.5952 201° Southwest  Level Estimated
08:33AM 67.4679 16.5037 201° Southwest  Level Estimated
08:34AM 67.3748 16.4128 201° Southwest  Level Estimated
08:35AM 67.2818 16.3227 201° Southwest  Level Estimated
08:36AM 67.1887 16.2333 200° South  Level Estimated
08:37AM 67.0955 16.1445 200° South  Level Estimated
08:38AM 67.0023 16.0565 200° South  Level Estimated
08:39AM 66.9090 15.9691 200° South  Level Estimated
08:40AM 66.8157 15.8824 200° South  Level Estimated
08:41AM 66.7223 15.7963 200° South  Level Estimated
08:42AM 66.6289 15.7109 200° South  Level Estimated
08:43AM 66.5355 15.6261 200° South  Level Estimated
08:44AM 66.4419 15.5420 200° South  Level Estimated
08:45AM 66.3484 15.4585 200° South  Level Estimated
08:46AM 66.2548 15.3756 200° South  Level Estimated
08:47AM 66.1612 15.2933 200° South  Level Estimated
08:48AM 66.0675 15.2117 199° South  Level Estimated
08:49AM 65.9738 15.1306 199° South  Level Estimated
08:50AM 65.8800 15.0501 199° South  Level Estimated
08:51AM 65.7862 14.9702 199° South  Level Estimated
08:52AM 65.6924 14.8909 199° South  Level Estimated
08:53AM 65.5985 14.8122 199° South  Level Estimated
08:54AM 65.4986 14.7291 199° South  Level Estimated
08:55AM 65.3987 14.6467 199° South  Level Estimated
08:56AM 65.2988 14.5648 199° South  Level Estimated
08:57AM 65.1988 14.4836 199° South  Level Estimated
08:58AM 65.0987 14.4030 199° South  Level Estimated
08:59AM 64.9986 14.3230 199° South  Level Estimated
09:00AM 64.8985 14.2436 199° South  Level Estimated
09:01AM 64.7984 14.1648 199° South  Level Estimated
09:02AM 64.6982 14.0866 198° South  Level Estimated
09:03AM 64.5979 14.0089 198° South  Level Estimated
09:04AM 64.4976 13.9319 198° South  Level Estimated
09:05AM 64.3973 13.8553 198° South  Level Estimated
09:06AM 64.2969 13.7794 198° South  Level Estimated
09:07AM 64.1965 13.7040 198° South  Level Estimated
09:08AM 64.0960 13.6291 198° South  Level Estimated
09:09AM 63.9956 13.5548 198° South  Level Estimated
09:10AM 63.8951 13.4810 198° South  Level Estimated
09:11AM 63.7945 13.4078 198° South  Level Estimated
09:12AM 63.6939 13.3350 198° South  Level Estimated
09:13AM 63.5933 13.2628 198° South  Level Estimated
09:14AM 63.4926 13.1911 198° South  Level Estimated
09:15AM 63.3919 13.1199 198° South  Level Estimated
09:16AM 63.2911 13.0492 198° South  Level Estimated
09:17AM 63.1904 12.9789 197° South  Level Estimated
09:18AM 63.0896 12.9092 197° South  Level Estimated
09:19AM 62.9887 12.8400 197° South  Level Estimated
09:20AM 62.8879 12.7712 197° South  Level Estimated
09:21AM 62.7825 12.6999 197° South  Level Estimated
09:22AM 62.6771 12.6291 197° South  Level Estimated
09:23AM 62.5717 12.5588 197° South  Level Estimated
09:24AM 62.4663 12.4890 197° South  Level Estimated
09:25AM 62.3608 12.4197 197° South  Level Estimated
09:26AM 62.2552 12.3509 197° South  Level Estimated
09:27AM 62.1497 12.2826 197° South  Level Estimated
09:28AM 62.0441 12.2147 197° South  Level Estimated
09:29AM 61.9385 12.1473 197° South  Level Estimated
09:30AM 61.8328 12.0804 197° South  Level Estimated
09:31AM 61.7271 12.0139 197° South  Level Estimated
09:32AM 61.6214 11.9479 197° South  Level Estimated
09:33AM 61.5157 11.8824 196° South  Level Estimated
09:34AM 61.4099 11.8173 196° South  Level Estimated
09:35AM 61.3041 11.7526 196° South  Level Estimated
09:36AM 61.1982 11.6883 196° South  Level Estimated
09:37AM 61.0924 11.6245 196° South  Level Estimated
09:38AM 60.9865 11.5611 196° South  Level Estimated
09:39AM 60.8805 11.4982 196° South  Level Estimated
09:40AM 60.7746 11.4356 196° South  Level Estimated
09:41AM 60.6686 11.3735 196° South  Level Estimated
09:42AM 60.5626 11.3118 196° South  Level Estimated
09:43AM 60.4565 11.2504 196° South  Level Estimated
09:44AM 60.3504 11.1895 196° South  Level Estimated
09:45AM 60.2444 11.1290 196° South  Level Estimated
09:46AM 60.1939 11.1004 196° South  Level Estimated
09:47AM 60.1939 11.1004 171° South  Level Estimated
09:48AM 60.1939 11.1004 171° South  Level Estimated
09:49AM 60.1939 11.1004 171° South  Level Estimated
09:50AM 60.1939 11.1004 171° South  Level Estimated
09:51AM 60.1939 11.1004 171° South  Level Estimated
09:52AM 60.1939 11.1004 171° South  Level Estimated
09:53AM 60.1939 11.1004 171° South  Level Estimated
09:54AM 60.1939 11.1004 171° South  Level Estimated
09:55AM 60.1939 11.1004 171° South  Level Estimated
09:56AM 60.1939 11.1004 171° South  Level Estimated